sensor_id;sensor_type;location;lat;lon;timestamp;temperature;humidity
41547;DHT22;27271;45.412;10.852;2023-02-15T00:00:39;1.90;1.00
41547;DHT22;27271;45.412;10.852;2023-02-15T00:04:01;1.90;1.00
41547;DHT22;27271;45.412;10.852;2023-02-15T00:07:23;1.80;1.00
41547;DHT22;27271;45.412;10.852;2023-02-15T00:10:45;1.80;1.00
41547;DHT22;27271;45.412;10.852;2023-02-15T00:17:31;1.70;1.00
41547;DHT22;27271;45.412;10.852;2023-02-15T00:20:53;1.70;1.00
41547;DHT22;27271;45.412;10.852;2023-02-15T00:24:17;1.60;1.00
41547;DHT22;27271;45.412;10.852;2023-02-15T00:27:39;1.60;1.00
41547;DHT22;27271;45.412;10.852;2023-02-15T00:31:11;1.50;1.00
41547;DHT22;27271;45.412;10.852;2023-02-15T00:34:34;1.50;1.00
41547;DHT22;27271;45.412;10.852;2023-02-15T00:37:56;1.40;1.00
41547;DHT22;27271;45.412;10.852;2023-02-15T00:41:18;1.40;1.00
41547;DHT22;27271;45.412;10.852;2023-02-15T00:44:40;1.30;11.00
41547;DHT22;27271;45.412;10.852;2023-02-15T00:48:02;1.40;99.90
41547;DHT22;27271;45.412;10.852;2023-02-15T00:51:24;1.40;89.20
41547;DHT22;27271;45.412;10.852;2023-02-15T00:54:47;1.30;82.00
41547;DHT22;27271;45.412;10.852;2023-02-15T00:58:09;1.40;91.30
41547;DHT22;27271;45.412;10.852;2023-02-15T01:01:32;1.30;77.00
41547;DHT22;27271;45.412;10.852;2023-02-15T01:04:54;1.30;91.10
41547;DHT22;27271;45.412;10.852;2023-02-15T01:08:16;1.30;99.90
41547;DHT22;27271;45.412;10.852;2023-02-15T01:11:39;1.30;99.90
41547;DHT22;27271;45.412;10.852;2023-02-15T01:15:00;1.30;99.90
41547;DHT22;27271;45.412;10.852;2023-02-15T01:18:23;1.30;99.90
41547;DHT22;27271;45.412;10.852;2023-02-15T01:21:45;1.10;96.80
41547;DHT22;27271;45.412;10.852;2023-02-15T01:25:09;1.10;91.80
41547;DHT22;27271;45.412;10.852;2023-02-15T01:28:31;1.00;97.40
41547;DHT22;27271;45.412;10.852;2023-02-15T01:31:55;1.00;99.90
41547;DHT22;27271;45.412;10.852;2023-02-15T01:35:17;1.00;99.90
41547;DHT22;27271;45.412;10.852;2023-02-15T01:38:40;1.00;99.90
41547;DHT22;27271;45.412;10.852;2023-02-15T01:42:03;1.00;99.90
41547;DHT22;27271;45.412;10.852;2023-02-15T01:45:30;1.10;99.90
41547;DHT22;27271;45.412;10.852;2023-02-15T01:48:56;1.20;99.90
41547;DHT22;27271;45.412;10.852;2023-02-15T01:52:21;1.20;99.90
41547;DHT22;27271;45.412;10.852;2023-02-15T01:55:47;1.30;99.90
41547;DHT22;27271;45.412;10.852;2023-02-15T01:59:16;1.30;99.90
41547;DHT22;27271;45.412;10.852;2023-02-15T02:02:40;1.30;99.90
41547;DHT22;27271;45.412;10.852;2023-02-15T02:06:04;1.20;99.90
41547;DHT22;27271;45.412;10.852;2023-02-15T02:09:26;1.00;99.90
41547;DHT22;27271;45.412;10.852;2023-02-15T02:12:51;0.90;99.90
41547;DHT22;27271;45.412;10.852;2023-02-15T02:19:59;0.80;99.90
41547;DHT22;27271;45.412;10.852;2023-02-15T02:23:34;1.10;99.90
41547;DHT22;27271;45.412;10.852;2023-02-15T02:45:18;2.00;68.80
41547;DHT22;27271;45.412;10.852;2023-02-15T02:48:43;1.90;1.00
41547;DHT22;27271;45.412;10.852;2023-02-15T02:52:59;1.70;1.00
41547;DHT22;27271;45.412;10.852;2023-02-15T02:56:37;1.50;1.00
41547;DHT22;27271;45.412;10.852;2023-02-15T03:00:04;1.40;2.60
41547;DHT22;27271;45.412;10.852;2023-02-15T03:03:55;1.30;3.50
41547;DHT22;27271;45.412;10.852;2023-02-15T03:07:22;1.20;1.00
41547;DHT22;27271;45.412;10.852;2023-02-15T03:10:52;1.10;1.00
41547;DHT22;27271;45.412;10.852;2023-02-15T03:14:18;0.90;10.60
41547;DHT22;27271;45.412;10.852;2023-02-15T03:17:43;0.80;21.20
41547;DHT22;27271;45.412;10.852;2023-02-15T03:21:07;0.80;47.40
41547;DHT22;27271;45.412;10.852;2023-02-15T03:28:06;0.70;52.00
41547;DHT22;27271;45.412;10.852;2023-02-15T03:31:32;0.70;39.60
41547;DHT22;27271;45.412;10.852;2023-02-15T03:34:55;0.70;12.30
41547;DHT22;27271;45.412;10.852;2023-02-15T03:38:24;0.60;9.80
41547;DHT22;27271;45.412;10.852;2023-02-15T03:42:05;0.60;16.70
41547;DHT22;27271;45.412;10.852;2023-02-15T03:45:34;0.70;1.00
41547;DHT22;27271;45.412;10.852;2023-02-15T03:49:19;0.70;1.00
41547;DHT22;27271;45.412;10.852;2023-02-15T03:52:43;0.60;1.00
41547;DHT22;27271;45.412;10.852;2023-02-15T03:56:05;0.70;1.00
41547;DHT22;27271;45.412;10.852;2023-02-15T03:59:28;0.80;1.00
41547;DHT22;27271;45.412;10.852;2023-02-15T04:06:33;0.90;1.00
41547;DHT22;27271;45.412;10.852;2023-02-15T04:09:55;1.00;1.00
41547;DHT22;27271;45.412;10.852;2023-02-15T04:13:36;0.90;1.00
41547;DHT22;27271;45.412;10.852;2023-02-15T04:16:58;0.80;1.00
41547;DHT22;27271;45.412;10.852;2023-02-15T04:20:20;0.80;1.00
41547;DHT22;27271;45.412;10.852;2023-02-15T04:24:01;0.80;1.00
41547;DHT22;27271;45.412;10.852;2023-02-15T04:27:52;0.90;99.90
41547;DHT22;27271;45.412;10.852;2023-02-15T04:31:14;0.90;99.90
41547;DHT22;27271;45.412;10.852;2023-02-15T04:34:36;0.90;99.90
41547;DHT22;27271;45.412;10.852;2023-02-15T04:37:59;1.00;99.90
41547;DHT22;27271;45.412;10.852;2023-02-15T04:41:21;1.10;63.30
41547;DHT22;27271;45.412;10.852;2023-02-15T04:44:44;1.50;99.90
41547;DHT22;27271;45.412;10.852;2023-02-15T04:48:06;1.70;26.90
41547;DHT22;27271;45.412;10.852;2023-02-15T04:51:28;1.80;1.00
41547;DHT22;27271;45.412;10.852;2023-02-15T04:54:50;1.70;91.10
41547;DHT22;27271;45.412;10.852;2023-02-15T04:58:12;1.60;99.90
41547;DHT22;27271;45.412;10.852;2023-02-15T05:01:35;1.50;99.90
41547;DHT22;27271;45.412;10.852;2023-02-15T05:04:57;1.40;99.90
41547;DHT22;27271;45.412;10.852;2023-02-15T05:08:19;1.30;99.90
41547;DHT22;27271;45.412;10.852;2023-02-15T05:11:41;1.20;1.00
41547;DHT22;27271;45.412;10.852;2023-02-15T05:15:04;1.30;99.90
41547;DHT22;27271;45.412;10.852;2023-02-15T05:18:26;1.50;99.90
41547;DHT22;27271;45.412;10.852;2023-02-15T05:21:49;1.60;99.90
41547;DHT22;27271;45.412;10.852;2023-02-15T05:25:11;1.60;1.00
41547;DHT22;27271;45.412;10.852;2023-02-15T05:28:52;1.80;1.00
41547;DHT22;27271;45.412;10.852;2023-02-15T05:32:18;1.90;99.90
41547;DHT22;27271;45.412;10.852;2023-02-15T05:35:40;1.90;99.90
41547;DHT22;27271;45.412;10.852;2023-02-15T05:39:02;1.80;99.90
41547;DHT22;27271;45.412;10.852;2023-02-15T05:42:27;1.70;1.00
41547;DHT22;27271;45.412;10.852;2023-02-15T05:45:51;1.50;1.00
41547;DHT22;27271;45.412;10.852;2023-02-15T05:49:15;1.30;1.00
41547;DHT22;27271;45.412;10.852;2023-02-15T05:52:38;1.20;1.00
41547;DHT22;27271;45.412;10.852;2023-02-15T05:56:02;1.10;1.00
41547;DHT22;27271;45.412;10.852;2023-02-15T05:59:25;1.00;1.00
41547;DHT22;27271;45.412;10.852;2023-02-15T06:02:47;0.80;1.00
41547;DHT22;27271;45.412;10.852;2023-02-15T06:06:10;0.70;1.00
41547;DHT22;27271;45.412;10.852;2023-02-15T06:09:32;0.50;1.00
41547;DHT22;27271;45.412;10.852;2023-02-15T06:12:54;0.30;1.00
41547;DHT22;27271;45.412;10.852;2023-02-15T06:16:16;0.20;12.00
41547;DHT22;27271;45.412;10.852;2023-02-15T06:19:38;0.10;37.70
41547;DHT22;27271;45.412;10.852;2023-02-15T06:23:01;0.20;99.90
41547;DHT22;27271;45.412;10.852;2023-02-15T06:26:24;0.10;98.40
41547;DHT22;27271;45.412;10.852;2023-02-15T06:29:47;0.10;99.90
41547;DHT22;27271;45.412;10.852;2023-02-15T06:33:09;0.10;99.90
41547;DHT22;27271;45.412;10.852;2023-02-15T06:36:41;0.10;99.90
41547;DHT22;27271;45.412;10.852;2023-02-15T06:40:03;0.20;99.90
41547;DHT22;27271;45.412;10.852;2023-02-15T06:43:25;0.30;99.90
41547;DHT22;27271;45.412;10.852;2023-02-15T06:46:48;0.40;99.90
41547;DHT22;27271;45.412;10.852;2023-02-15T06:50:12;0.60;99.90
41547;DHT22;27271;45.412;10.852;2023-02-15T06:53:34;0.80;99.90
41547;DHT22;27271;45.412;10.852;2023-02-15T06:56:57;0.80;99.90
41547;DHT22;27271;45.412;10.852;2023-02-15T07:00:19;0.90;99.90
41547;DHT22;27271;45.412;10.852;2023-02-15T07:03:44;0.90;99.90
41547;DHT22;27271;45.412;10.852;2023-02-15T07:07:10;1.10;99.90
41547;DHT22;27271;45.412;10.852;2023-02-15T07:10:53;1.30;99.90
41547;DHT22;27271;45.412;10.852;2023-02-15T07:14:43;1.60;99.90
41547;DHT22;27271;45.412;10.852;2023-02-15T07:18:06;1.90;99.90
41547;DHT22;27271;45.412;10.852;2023-02-15T07:21:28;2.20;99.90
41547;DHT22;27271;45.412;10.852;2023-02-15T07:24:50;2.60;87.30
41547;DHT22;27271;45.412;10.852;2023-02-15T07:28:16;4.00;96.40
41547;DHT22;27271;45.412;10.852;2023-02-15T07:31:38;5.90;1.00
41547;DHT22;27271;45.412;10.852;2023-02-15T07:35:00;7.30;95.40
41547;DHT22;27271;45.412;10.852;2023-02-15T07:38:22;7.70;10.80
41547;DHT22;27271;45.412;10.852;2023-02-15T07:41:44;7.60;6.80
41547;DHT22;27271;45.412;10.852;2023-02-15T07:45:10;7.90;11.60
41547;DHT22;27271;45.412;10.852;2023-02-15T07:48:35;9.00;1.00
41547;DHT22;27271;45.412;10.852;2023-02-15T07:52:00;10.60;1.00
41547;DHT22;27271;45.412;10.852;2023-02-15T07:55:23;12.40;1.00
41547;DHT22;27271;45.412;10.852;2023-02-15T07:58:46;13.50;1.00
41547;DHT22;27271;45.412;10.852;2023-02-15T08:02:14;15.00;1.00
41547;DHT22;27271;45.412;10.852;2023-02-15T08:05:40;16.30;1.00
41547;DHT22;27271;45.412;10.852;2023-02-15T08:09:04;17.20;1.00
41547;DHT22;27271;45.412;10.852;2023-02-15T08:12:28;18.10;1.00
41547;DHT22;27271;45.412;10.852;2023-02-15T08:15:51;18.50;1.00
41547;DHT22;27271;45.412;10.852;2023-02-15T08:19:20;18.70;1.00
41547;DHT22;27271;45.412;10.852;2023-02-15T08:22:43;18.80;1.00
41547;DHT22;27271;45.412;10.852;2023-02-15T08:26:08;19.60;1.00
41547;DHT22;27271;45.412;10.852;2023-02-15T08:29:31;19.70;1.00
41547;DHT22;27271;45.412;10.852;2023-02-15T08:32:53;19.70;1.00
41547;DHT22;27271;45.412;10.852;2023-02-15T08:36:20;18.00;1.00
41547;DHT22;27271;45.412;10.852;2023-02-15T08:39:43;16.50;1.00
41547;DHT22;27271;45.412;10.852;2023-02-15T08:43:05;15.80;1.00
41547;DHT22;27271;45.412;10.852;2023-02-15T08:46:31;16.00;1.00
41547;DHT22;27271;45.412;10.852;2023-02-15T08:49:54;16.80;1.00
41547;DHT22;27271;45.412;10.852;2023-02-15T08:53:18;17.70;1.00
41547;DHT22;27271;45.412;10.852;2023-02-15T08:56:44;18.20;1.00
41547;DHT22;27271;45.412;10.852;2023-02-15T09:00:07;19.10;1.00
41547;DHT22;27271;45.412;10.852;2023-02-15T09:03:29;18.90;1.00
41547;DHT22;27271;45.412;10.852;2023-02-15T09:06:52;19.20;1.00
41547;DHT22;27271;45.412;10.852;2023-02-15T09:10:14;19.90;1.00
41547;DHT22;27271;45.412;10.852;2023-02-15T09:13:38;19.00;1.00
41547;DHT22;27271;45.412;10.852;2023-02-15T09:17:00;19.20;1.00
41547;DHT22;27271;45.412;10.852;2023-02-15T09:20:23;19.60;1.00
41547;DHT22;27271;45.412;10.852;2023-02-15T09:23:48;20.00;1.00
41547;DHT22;27271;45.412;10.852;2023-02-15T09:27:20;20.00;1.00
41547;DHT22;27271;45.412;10.852;2023-02-15T09:30:42;19.90;1.00
41547;DHT22;27271;45.412;10.852;2023-02-15T09:34:04;19.50;1.00
41547;DHT22;27271;45.412;10.852;2023-02-15T09:37:27;19.60;1.00
41547;DHT22;27271;45.412;10.852;2023-02-15T09:41:02;20.40;1.00
41547;DHT22;27271;45.412;10.852;2023-02-15T09:48:38;21.40;1.00
41547;DHT22;27271;45.412;10.852;2023-02-15T10:15:12;20.60;1.00
41547;DHT22;27271;45.412;10.852;2023-02-15T10:19:00;20.00;1.00
41547;DHT22;27271;45.412;10.852;2023-02-15T10:26:06;20.90;1.00
41547;DHT22;27271;45.412;10.852;2023-02-15T10:29:52;21.70;1.00
41547;DHT22;27271;45.412;10.852;2023-02-15T10:33:31;21.60;1.00
41547;DHT22;27271;45.412;10.852;2023-02-15T10:41:17;21.70;1.00
41547;DHT22;27271;45.412;10.852;2023-02-15T10:48:40;22.40;1.00
41547;DHT22;27271;45.412;10.852;2023-02-15T10:56:50;21.40;1.00
41547;DHT22;27271;45.412;10.852;2023-02-15T11:08:03;21.20;1.00
41547;DHT22;27271;45.412;10.852;2023-02-15T11:11:49;21.00;1.00
41547;DHT22;27271;45.412;10.852;2023-02-15T11:15:57;20.70;1.00
41547;DHT22;27271;45.412;10.852;2023-02-15T11:19:26;20.70;1.00
41547;DHT22;27271;45.412;10.852;2023-02-15T11:22:51;20.70;1.00
41547;DHT22;27271;45.412;10.852;2023-02-15T11:30:46;20.50;1.00
41547;DHT22;27271;45.412;10.852;2023-02-15T11:34:27;20.10;1.00
41547;DHT22;27271;45.412;10.852;2023-02-15T11:38:06;20.00;1.00
41547;DHT22;27271;45.412;10.852;2023-02-15T11:41:33;19.60;1.00
41547;DHT22;27271;45.412;10.852;2023-02-15T11:48:43;19.90;1.00
41547;DHT22;27271;45.412;10.852;2023-02-15T11:52:10;20.20;1.00
41547;DHT22;27271;45.412;10.852;2023-02-15T11:55:54;20.40;1.00
41547;DHT22;27271;45.412;10.852;2023-02-15T11:59:34;20.20;1.00
41547;DHT22;27271;45.412;10.852;2023-02-15T12:02:58;20.30;1.00
41547;DHT22;27271;45.412;10.852;2023-02-15T12:07:01;20.30;1.00
41547;DHT22;27271;45.412;10.852;2023-02-15T12:10:40;20.10;1.00
41547;DHT22;27271;45.412;10.852;2023-02-15T12:14:12;20.10;1.00
41547;DHT22;27271;45.412;10.852;2023-02-15T12:17:53;19.90;1.00
41547;DHT22;27271;45.412;10.852;2023-02-15T12:21:41;19.90;1.00
41547;DHT22;27271;45.412;10.852;2023-02-15T12:25:27;19.80;1.00
41547;DHT22;27271;45.412;10.852;2023-02-15T12:29:16;19.60;1.00
41547;DHT22;27271;45.412;10.852;2023-02-15T12:32:53;19.50;1.00
41547;DHT22;27271;45.412;10.852;2023-02-15T12:36:22;19.30;1.00
41547;DHT22;27271;45.412;10.852;2023-02-15T12:39:54;19.10;1.00
41547;DHT22;27271;45.412;10.852;2023-02-15T12:47:19;19.00;1.00
41547;DHT22;27271;45.412;10.852;2023-02-15T12:51:23;18.90;1.00
41547;DHT22;27271;45.412;10.852;2023-02-15T12:54:55;18.50;1.00
41547;DHT22;27271;45.412;10.852;2023-02-15T12:58:46;18.60;1.00
41547;DHT22;27271;45.412;10.852;2023-02-15T13:02:41;18.50;1.00
41547;DHT22;27271;45.412;10.852;2023-02-15T13:06:05;18.40;1.00
41547;DHT22;27271;45.412;10.852;2023-02-15T13:09:54;18.30;1.00
41547;DHT22;27271;45.412;10.852;2023-02-15T13:14:19;18.30;1.00
41547;DHT22;27271;45.412;10.852;2023-02-15T13:17:52;18.20;1.00
41547;DHT22;27271;45.412;10.852;2023-02-15T13:21:30;18.20;1.00
41547;DHT22;27271;45.412;10.852;2023-02-15T13:25:11;18.00;1.00
41547;DHT22;27271;45.412;10.852;2023-02-15T13:28:59;18.00;1.00
41547;DHT22;27271;45.412;10.852;2023-02-15T13:32:41;18.00;1.00
41547;DHT22;27271;45.412;10.852;2023-02-15T13:47:26;18.10;1.00
41547;DHT22;27271;45.412;10.852;2023-02-15T13:51:49;17.90;1.00
41547;DHT22;27271;45.412;10.852;2023-02-15T13:59:24;18.00;1.00
41547;DHT22;27271;45.412;10.852;2023-02-15T14:14:27;17.90;1.00
41547;DHT22;27271;45.412;10.852;2023-02-15T14:18:16;17.80;1.00
41547;DHT22;27271;45.412;10.852;2023-02-15T14:22:08;17.80;1.00
41547;DHT22;27271;45.412;10.852;2023-02-15T14:25:42;17.60;1.00
41547;DHT22;27271;45.412;10.852;2023-02-15T14:34:00;17.30;1.00
41547;DHT22;27271;45.412;10.852;2023-02-15T14:42:43;17.20;1.00
41547;DHT22;27271;45.412;10.852;2023-02-15T14:49:40;16.70;1.00
41547;DHT22;27271;45.412;10.852;2023-02-15T15:00:44;16.20;1.00
41547;DHT22;27271;45.412;10.852;2023-02-15T15:04:29;16.10;1.00
41547;DHT22;27271;45.412;10.852;2023-02-15T15:08:01;15.90;1.00
41547;DHT22;27271;45.412;10.852;2023-02-15T15:15:05;15.70;1.00
41547;DHT22;27271;45.412;10.852;2023-02-15T15:18:48;15.60;1.00
41547;DHT22;27271;45.412;10.852;2023-02-15T15:25:52;15.30;1.00
41547;DHT22;27271;45.412;10.852;2023-02-15T15:29:40;15.20;1.00
41547;DHT22;27271;45.412;10.852;2023-02-15T15:33:36;15.00;1.00
41547;DHT22;27271;45.412;10.852;2023-02-15T16:02:14;14.20;1.00
41547;DHT22;27271;45.412;10.852;2023-02-15T16:05:40;14.00;1.00
41547;DHT22;27271;45.412;10.852;2023-02-15T16:12:36;13.60;1.00
41547;DHT22;27271;45.412;10.852;2023-02-15T16:15:59;13.40;1.00
41547;DHT22;27271;45.412;10.852;2023-02-15T16:19:28;13.10;1.00
41547;DHT22;27271;45.412;10.852;2023-02-15T16:23:06;12.80;1.00
41547;DHT22;27271;45.412;10.852;2023-02-15T16:33:46;11.90;1.00
41547;DHT22;27271;45.412;10.852;2023-02-15T16:37:19;11.60;1.00
41547;DHT22;27271;45.412;10.852;2023-02-15T16:40:55;11.30;1.00
41547;DHT22;27271;45.412;10.852;2023-02-15T16:44:20;11.00;1.00
41547;DHT22;27271;45.412;10.852;2023-02-15T16:47:48;10.70;1.00
41547;DHT22;27271;45.412;10.852;2023-02-15T16:51:20;10.50;1.00
41547;DHT22;27271;45.412;10.852;2023-02-15T16:54:43;10.30;1.00
41547;DHT22;27271;45.412;10.852;2023-02-15T16:58:07;10.10;1.00
41547;DHT22;27271;45.412;10.852;2023-02-15T17:01:31;9.90;1.00
41547;DHT22;27271;45.412;10.852;2023-02-15T17:05:16;9.70;1.00
41547;DHT22;27271;45.412;10.852;2023-02-15T17:08:43;9.60;1.00
41547;DHT22;27271;45.412;10.852;2023-02-15T17:12:09;9.50;1.00
41547;DHT22;27271;45.412;10.852;2023-02-15T17:15:36;9.30;1.00
41547;DHT22;27271;45.412;10.852;2023-02-15T17:19:01;9.20;1.00
41547;DHT22;27271;45.412;10.852;2023-02-15T17:22:25;9.10;1.00
41547;DHT22;27271;45.412;10.852;2023-02-15T17:25:52;8.90;4.70
41547;DHT22;27271;45.412;10.852;2023-02-15T17:30:14;8.80;11.20
41547;DHT22;27271;45.412;10.852;2023-02-15T17:33:26;8.60;40.50
41547;DHT22;27271;45.412;10.852;2023-02-15T17:36:57;8.60;52.80
41547;DHT22;27271;45.412;10.852;2023-02-15T17:40:27;8.40;86.40
41547;DHT22;27271;45.412;10.852;2023-02-15T17:43:50;8.30;90.50
41547;DHT22;27271;45.412;10.852;2023-02-15T17:47:18;8.20;99.90
41547;DHT22;27271;45.412;10.852;2023-02-15T17:50:41;8.10;99.90
41547;DHT22;27271;45.412;10.852;2023-02-15T17:54:03;7.90;99.90
41547;DHT22;27271;45.412;10.852;2023-02-15T17:57:47;7.80;99.90
41547;DHT22;27271;45.412;10.852;2023-02-15T18:01:17;7.60;99.90
41547;DHT22;27271;45.412;10.852;2023-02-15T18:04:59;7.60;99.90
41547;DHT22;27271;45.412;10.852;2023-02-15T18:08:39;7.60;99.90
41547;DHT22;27271;45.412;10.852;2023-02-15T18:15:42;7.60;99.90
41547;DHT22;27271;45.412;10.852;2023-02-15T18:19:08;7.50;99.90
41547;DHT22;27271;45.412;10.852;2023-02-15T18:22:32;7.50;99.90
41547;DHT22;27271;45.412;10.852;2023-02-15T18:25:54;7.40;99.90
41547;DHT22;27271;45.412;10.852;2023-02-15T18:29:16;7.40;99.90
41547;DHT22;27271;45.412;10.852;2023-02-15T18:32:39;7.30;99.90
41547;DHT22;27271;45.412;10.852;2023-02-15T18:36:04;7.30;99.90
41547;DHT22;27271;45.412;10.852;2023-02-15T18:39:57;7.20;99.90
41547;DHT22;27271;45.412;10.852;2023-02-15T18:43:20;7.20;99.90
41547;DHT22;27271;45.412;10.852;2023-02-15T18:46:42;7.10;99.90
41547;DHT22;27271;45.412;10.852;2023-02-15T18:50:05;7.00;99.90
41547;DHT22;27271;45.412;10.852;2023-02-15T18:53:28;6.90;1.00
41547;DHT22;27271;45.412;10.852;2023-02-15T18:56:54;6.90;1.00
41547;DHT22;27271;45.412;10.852;2023-02-15T19:00:26;6.80;1.00
41547;DHT22;27271;45.412;10.852;2023-02-15T19:03:51;6.80;1.00
41547;DHT22;27271;45.412;10.852;2023-02-15T19:07:21;6.70;1.00
41547;DHT22;27271;45.412;10.852;2023-02-15T19:10:44;6.60;1.00
41547;DHT22;27271;45.412;10.852;2023-02-15T19:14:19;6.40;1.00
41547;DHT22;27271;45.412;10.852;2023-02-15T19:17:43;6.30;1.00
41547;DHT22;27271;45.412;10.852;2023-02-15T19:21:10;6.20;28.60
41547;DHT22;27271;45.412;10.852;2023-02-15T19:24:37;6.20;96.60
41547;DHT22;27271;45.412;10.852;2023-02-15T19:28:01;6.10;99.90
41547;DHT22;27271;45.412;10.852;2023-02-15T19:31:25;6.00;99.90
41547;DHT22;27271;45.412;10.852;2023-02-15T19:34:47;5.90;99.90
41547;DHT22;27271;45.412;10.852;2023-02-15T19:38:17;5.90;99.90
41547;DHT22;27271;45.412;10.852;2023-02-15T19:41:41;6.00;99.90
41547;DHT22;27271;45.412;10.852;2023-02-15T19:45:15;6.00;99.90
41547;DHT22;27271;45.412;10.852;2023-02-15T19:48:37;6.00;16.30
41547;DHT22;27271;45.412;10.852;2023-02-15T19:51:59;6.10;1.00
41547;DHT22;27271;45.412;10.852;2023-02-15T19:58:50;6.20;99.90
41547;DHT22;27271;45.412;10.852;2023-02-15T20:02:18;6.30;99.90
41547;DHT22;27271;45.412;10.852;2023-02-15T20:05:41;6.40;99.90
41547;DHT22;27271;45.412;10.852;2023-02-15T20:09:04;6.40;99.90
41547;DHT22;27271;45.412;10.852;2023-02-15T20:12:26;6.30;99.90
41547;DHT22;27271;45.412;10.852;2023-02-15T20:15:50;6.10;99.90
41547;DHT22;27271;45.412;10.852;2023-02-15T20:19:13;6.00;1.00
41547;DHT22;27271;45.412;10.852;2023-02-15T20:22:36;5.80;1.00
41547;DHT22;27271;45.412;10.852;2023-02-15T20:26:21;5.70;1.00
41547;DHT22;27271;45.412;10.852;2023-02-15T20:29:44;5.40;1.00
41547;DHT22;27271;45.412;10.852;2023-02-15T20:33:06;5.30;54.40
41547;DHT22;27271;45.412;10.852;2023-02-15T20:36:28;5.20;32.10
41547;DHT22;27271;45.412;10.852;2023-02-15T20:39:51;5.20;24.50
41547;DHT22;27271;45.412;10.852;2023-02-15T20:43:14;5.20;63.90
41547;DHT22;27271;45.412;10.852;2023-02-15T20:46:36;5.20;20.60
41547;DHT22;27271;45.412;10.852;2023-02-15T20:49:58;5.20;8.90
41547;DHT22;27271;45.412;10.852;2023-02-15T20:53:20;5.00;14.30
41547;DHT22;27271;45.412;10.852;2023-02-15T20:56:42;4.90;99.90
41547;DHT22;27271;45.412;10.852;2023-02-15T21:00:05;4.80;99.90
41547;DHT22;27271;45.412;10.852;2023-02-15T21:03:30;4.60;99.90
41547;DHT22;27271;45.412;10.852;2023-02-15T21:06:52;4.50;99.90
41547;DHT22;27271;45.412;10.852;2023-02-15T21:10:20;4.40;1.00
41547;DHT22;27271;45.412;10.852;2023-02-15T21:13:44;4.40;1.00
41547;DHT22;27271;45.412;10.852;2023-02-15T21:17:10;4.50;99.90
41547;DHT22;27271;45.412;10.852;2023-02-15T21:20:34;4.40;99.90
41547;DHT22;27271;45.412;10.852;2023-02-15T21:23:56;4.40;99.90
41547;DHT22;27271;45.412;10.852;2023-02-15T21:27:18;4.40;99.90
41547;DHT22;27271;45.412;10.852;2023-02-15T21:30:40;4.30;99.90
41547;DHT22;27271;45.412;10.852;2023-02-15T21:34:02;4.30;1.00
41547;DHT22;27271;45.412;10.852;2023-02-15T21:37:29;4.30;99.90
41547;DHT22;27271;45.412;10.852;2023-02-15T21:40:52;4.30;99.90
41547;DHT22;27271;45.412;10.852;2023-02-15T21:44:18;4.20;1.00
41547;DHT22;27271;45.412;10.852;2023-02-15T21:47:59;4.20;1.00
41547;DHT22;27271;45.412;10.852;2023-02-15T21:51:25;4.10;1.00
41547;DHT22;27271;45.412;10.852;2023-02-15T21:55:13;4.10;1.00
41547;DHT22;27271;45.412;10.852;2023-02-15T21:58:35;4.10;1.00
41547;DHT22;27271;45.412;10.852;2023-02-15T22:01:58;4.00;1.00
41547;DHT22;27271;45.412;10.852;2023-02-15T22:05:26;4.10;1.00
41547;DHT22;27271;45.412;10.852;2023-02-15T22:08:48;4.10;1.00
41547;DHT22;27271;45.412;10.852;2023-02-15T22:12:15;4.10;1.00
41547;DHT22;27271;45.412;10.852;2023-02-15T22:15:38;4.00;1.00
41547;DHT22;27271;45.412;10.852;2023-02-15T22:19:00;4.00;1.00
41547;DHT22;27271;45.412;10.852;2023-02-15T22:22:23;3.90;1.00
41547;DHT22;27271;45.412;10.852;2023-02-15T22:25:51;3.80;1.00
41547;DHT22;27271;45.412;10.852;2023-02-15T22:29:17;3.60;1.00
41547;DHT22;27271;45.412;10.852;2023-02-15T22:32:39;3.50;1.00
41547;DHT22;27271;45.412;10.852;2023-02-15T22:36:01;3.40;1.00
41547;DHT22;27271;45.412;10.852;2023-02-15T22:39:24;3.30;1.00
41547;DHT22;27271;45.412;10.852;2023-02-15T22:42:49;3.20;99.90
41547;DHT22;27271;45.412;10.852;2023-02-15T22:46:23;3.10;99.90
41547;DHT22;27271;45.412;10.852;2023-02-15T22:49:45;3.10;99.90
41547;DHT22;27271;45.412;10.852;2023-02-15T22:53:08;3.20;99.90
41547;DHT22;27271;45.412;10.852;2023-02-15T22:56:52;3.10;99.90
41547;DHT22;27271;45.412;10.852;2023-02-15T23:00:19;3.10;99.90
41547;DHT22;27271;45.412;10.852;2023-02-15T23:03:41;3.00;99.90
41547;DHT22;27271;45.412;10.852;2023-02-15T23:07:09;3.00;99.90
41547;DHT22;27271;45.412;10.852;2023-02-15T23:10:32;3.00;99.90
41547;DHT22;27271;45.412;10.852;2023-02-15T23:13:54;3.00;99.90
41547;DHT22;27271;45.412;10.852;2023-02-15T23:17:17;3.20;99.90
41547;DHT22;27271;45.412;10.852;2023-02-15T23:20:39;3.20;99.90
41547;DHT22;27271;45.412;10.852;2023-02-15T23:24:28;3.10;99.90
41547;DHT22;27271;45.412;10.852;2023-02-15T23:27:50;3.10;99.90
41547;DHT22;27271;45.412;10.852;2023-02-15T23:31:23;3.10;99.90
41547;DHT22;27271;45.412;10.852;2023-02-15T23:34:46;3.00;99.90
41547;DHT22;27271;45.412;10.852;2023-02-15T23:38:28;3.00;99.90
41547;DHT22;27271;45.412;10.852;2023-02-15T23:41:50;2.90;99.90
41547;DHT22;27271;45.412;10.852;2023-02-15T23:45:22;2.90;99.90
41547;DHT22;27271;45.412;10.852;2023-02-15T23:48:44;2.90;99.90
41547;DHT22;27271;45.412;10.852;2023-02-15T23:52:09;2.80;99.90
41547;DHT22;27271;45.412;10.852;2023-02-15T23:55:37;2.70;99.90
41547;DHT22;27271;45.412;10.852;2023-02-15T23:59:00;2.60;99.90
